createdAt,value
2019-03-01T00:01:20.244Z,89.27
2019-03-01T00:03:57.745Z,92.30
2019-03-01T00:06:33.300Z,85.80
2019-03-01T00:09:40.836Z,78.13
2019-03-01T00:12:39.916Z,79.60
2019-03-01T00:15:24.144Z,88.33
2019-03-01T00:18:22.747Z,81.03
2019-03-01T00:21:23.600Z,73.93
2019-03-01T00:24:13.447Z,87.03
2019-03-01T00:27:31.671Z,76.67
2019-03-01T00:30:43.090Z,68.67
2019-03-01T00:33:55.129Z,67.17
2019-03-01T00:37:03.003Z,67.53
2019-03-01T00:39:41.640Z,69.27
2019-03-01T00:42:55.948Z,70.60
2019-03-01T00:45:26.943Z,69.47
2019-03-01T00:47:57.551Z,62.13
2019-03-01T00:50:28.243Z,65.20
2019-03-01T00:52:58.869Z,64.50
2019-03-01T00:55:30.259Z,75.53
2019-03-01T00:58:00.970Z,69.60
2019-03-01T01:00:36.353Z,67.47
2019-03-01T01:03:07.045Z,71.00
2019-03-01T01:05:39.356Z,58.53
2019-03-01T01:08:10.585Z,60.43
2019-03-01T01:10:41.316Z,66.10
2019-03-01T01:13:11.930Z,75.03
2019-03-01T01:15:42.559Z,75.20
2019-03-01T01:18:13.790Z,70.00
2019-03-01T01:20:44.480Z,68.83
2019-03-01T01:23:15.379Z,80.60
2019-03-01T01:25:46.136Z,71.70
2019-03-01T01:28:16.841Z,77.67
2019-03-01T01:30:47.518Z,74.53
2019-03-01T01:33:18.157Z,81.00
2019-03-01T01:35:48.801Z,83.17
2019-03-01T01:38:19.420Z,75.30
2019-03-01T01:40:50.171Z,76.90
2019-03-01T01:43:20.876Z,72.80
2019-03-01T01:45:51.828Z,75.40
2019-03-01T01:48:23.013Z,68.50
2019-03-01T01:50:53.620Z,83.10
2019-03-01T01:53:24.548Z,81.33
2019-03-01T01:55:55.505Z,72.53
2019-03-01T01:58:26.216Z,70.47
2019-03-01T02:00:56.948Z,62.63
2019-03-01T02:03:27.673Z,84.40
2019-03-01T02:05:58.544Z,73.43
2019-03-01T02:08:29.246Z,78.37
2019-03-01T02:10:59.901Z,73.43
2019-03-01T02:13:30.582Z,71.67
2019-03-01T02:16:01.233Z,76.77
2019-03-01T02:18:31.852Z,74.30
2019-03-01T02:21:02.484Z,72.90
2019-03-01T02:23:33.423Z,76.23
2019-03-01T02:26:04.056Z,75.97
2019-03-01T02:28:34.728Z,79.13
2019-03-01T02:31:06.552Z,79.57
2019-03-01T02:33:37.333Z,78.60
2019-03-01T02:36:08.187Z,84.97
2019-03-01T02:38:38.966Z,76.93
2019-03-01T02:41:09.725Z,83.20
2019-03-01T02:43:40.325Z,71.63
2019-03-01T02:46:10.964Z,77.30
2019-03-01T02:48:41.667Z,84.47
2019-03-01T02:51:12.380Z,61.83
2019-03-01T02:53:43.009Z,78.80
2019-03-01T02:56:13.644Z,70.47
2019-03-01T02:58:44.629Z,69.30
2019-03-01T03:01:15.492Z,68.70
2019-03-01T03:03:46.165Z,77.70
2019-03-01T03:06:35.933Z,74.37
2019-03-01T03:09:08.614Z,87.07
2019-03-01T03:11:39.217Z,74.37
2019-03-01T03:14:09.965Z,80.50
2019-03-01T03:16:40.706Z,81.00
2019-03-01T03:19:11.379Z,87.80
2019-03-01T03:21:42.023Z,75.87
2019-03-01T03:24:13.005Z,80.37
2019-03-01T03:26:43.803Z,101.80
2019-03-01T03:29:14.487Z,97.57
2019-03-01T03:31:45.412Z,86.57
2019-03-01T03:34:16.060Z,85.83
2019-03-01T03:36:46.768Z,88.20
2019-03-01T03:39:17.424Z,95.43
2019-03-01T03:41:48.156Z,75.63
2019-03-01T03:44:18.813Z,80.53
2019-03-01T03:46:49.508Z,88.97
2019-03-01T03:49:20.193Z,77.50
2019-03-01T03:51:50.817Z,81.00
2019-03-01T03:54:21.464Z,75.23
2019-03-01T03:56:52.142Z,91.73
2019-03-01T03:59:22.906Z,79.53
2019-03-01T04:01:53.785Z,71.63
2019-03-01T04:04:24.460Z,78.37
2019-03-01T04:06:55.250Z,75.03
2019-03-01T04:09:26.287Z,68.23
2019-03-01T04:11:57.014Z,76.60
2019-03-01T04:14:27.980Z,79.10
2019-03-01T04:16:58.577Z,76.57
2019-03-01T04:19:29.307Z,70.00
2019-03-01T04:21:59.930Z,76.37
2019-03-01T04:24:30.560Z,74.50
2019-03-01T04:27:01.197Z,79.53
2019-03-01T04:29:32.198Z,80.97
2019-03-01T04:32:02.815Z,77.70
2019-03-01T04:34:33.478Z,69.70
2019-03-01T04:37:04.130Z,70.43
2019-03-01T04:39:34.792Z,74.67
2019-03-01T04:42:05.494Z,75.93
2019-03-01T04:44:36.148Z,69.47
2019-03-01T04:47:06.797Z,82.20
2019-03-01T04:49:37.489Z,72.40
2019-03-01T04:52:29.895Z,71.97
2019-03-01T04:55:03.461Z,68.10
2019-03-01T04:57:34.416Z,66.80
2019-03-01T05:00:06.364Z,75.70
2019-03-01T05:02:37.778Z,71.97
2019-03-01T05:05:08.739Z,81.73
2019-03-01T05:07:39.408Z,84.27
2019-03-01T05:10:11.143Z,80.83
2019-03-01T05:12:42.223Z,79.07
2019-03-01T05:15:31.212Z,83.37
2019-03-01T05:18:02.172Z,78.60
2019-03-01T05:20:32.809Z,90.13
2019-03-01T05:23:03.514Z,74.77
2019-03-01T05:25:34.429Z,81.20
2019-03-01T05:28:05.603Z,77.87
2019-03-01T05:30:36.216Z,79.73
2019-03-01T05:33:07.166Z,78.37
2019-03-01T05:35:37.923Z,76.20
2019-03-01T05:38:08.825Z,64.03
2019-03-01T05:40:39.721Z,76.57
2019-03-01T05:43:10.383Z,81.50
2019-03-01T05:45:41.412Z,68.30
2019-03-01T05:48:12.067Z,79.27
2019-03-01T05:50:42.824Z,72.20
2019-03-01T05:53:13.509Z,83.03
2019-03-01T05:55:44.171Z,68.67
2019-03-01T05:58:35.284Z,71.30
2019-03-01T06:01:16.269Z,69.60
2019-03-01T06:04:02.422Z,66.43
2019-03-01T06:06:43.829Z,72.60
2019-03-01T06:09:29.706Z,79.27
2019-03-01T06:12:33.489Z,64.80
2019-03-01T06:15:37.597Z,68.13
2019-03-01T06:18:44.600Z,70.80
2019-03-01T06:21:49.959Z,69.93
2019-03-01T06:25:00.833Z,76.93
2019-03-01T06:28:12.343Z,70.33
2019-03-01T06:31:12.696Z,80.90
2019-03-01T06:34:27.901Z,73.43
2019-03-01T06:37:18.910Z,71.73
2019-03-01T06:40:30.330Z,73.60
2019-03-01T06:43:28.520Z,71.63
2019-03-01T06:46:19.263Z,74.27
2019-03-01T06:48:57.612Z,74.83
2019-03-01T06:51:33.986Z,72.50
2019-03-01T06:54:04.741Z,77.30
2019-03-01T06:56:35.565Z,74.07
2019-03-01T06:59:08.364Z,75.97
2019-03-01T07:01:42.126Z,77.33
2019-03-01T07:04:18.015Z,74.53
2019-03-01T07:06:48.862Z,79.47
2019-03-01T07:09:19.624Z,75.17
2019-03-01T07:11:50.773Z,74.27
2019-03-01T07:14:21.942Z,79.73
2019-03-01T07:16:52.574Z,76.83
2019-03-01T07:19:23.271Z,70.03
2019-03-01T07:21:53.960Z,73.90
2019-03-01T07:24:24.675Z,71.30
2019-03-01T07:26:55.565Z,66.83
2019-03-01T07:29:26.748Z,80.90
2019-03-01T07:31:57.829Z,78.70
2019-03-01T07:34:28.475Z,70.57
2019-03-01T07:36:59.166Z,66.20
2019-03-01T07:39:29.821Z,65.53
2019-03-01T07:42:00.444Z,74.50
2019-03-01T07:44:31.474Z,71.97
2019-03-01T07:47:02.239Z,71.03
2019-03-01T07:49:32.997Z,72.87
2019-03-01T07:52:05.008Z,64.37
2019-03-01T07:54:36.007Z,72.50
2019-03-01T07:57:06.851Z,75.43
2019-03-01T07:59:39.557Z,73.80
2019-03-01T08:02:10.353Z,75.37
2019-03-01T08:04:40.981Z,78.70
2019-03-01T08:07:11.601Z,103.63
2019-03-01T08:09:44.696Z,90.27
2019-03-01T08:12:14.588Z,86.40
2019-03-01T08:14:45.375Z,78.00
2019-03-01T08:17:16.088Z,82.07
2019-03-01T08:19:47.069Z,71.00
2019-03-01T08:22:20.884Z,90.43
2019-03-01T08:24:50.207Z,72.87
2019-03-01T08:27:20.837Z,78.40
2019-03-01T08:29:51.552Z,64.07
2019-03-01T08:32:22.224Z,72.83
2019-03-01T08:34:53.756Z,68.03
2019-03-01T08:37:25.363Z,63.73
2019-03-01T08:39:55.970Z,71.40
2019-03-01T08:42:26.770Z,68.77
2019-03-01T08:44:58.167Z,61.53
2019-03-01T08:47:29.965Z,67.77
2019-03-01T08:50:00.605Z,66.27
2019-03-01T08:52:31.368Z,62.50
2019-03-01T08:55:03.800Z,70.80
2019-03-01T08:57:43.767Z,81.27
2019-03-01T09:00:13.869Z,80.60
2019-03-01T09:02:44.820Z,104.47
2019-03-01T09:05:15.798Z,116.67
2019-03-01T09:07:46.965Z,103.37
2019-03-01T09:10:18.199Z,105.53
2019-03-01T09:12:49.016Z,105.47
2019-03-01T09:15:19.774Z,110.60
2019-03-01T09:17:50.461Z,99.30
2019-03-01T09:20:21.486Z,100.87
2019-03-01T09:22:52.224Z,110.73
2019-03-01T09:25:23.196Z,99.80
2019-03-01T09:27:53.946Z,117.30
2019-03-01T09:30:24.840Z,96.77
2019-03-01T09:32:55.707Z,104.77
2019-03-01T09:35:57.629Z,112.33
2019-03-01T09:38:28.329Z,107.77
2019-03-01T09:41:01.230Z,100.93
2019-03-01T09:43:31.947Z,100.20
2019-03-01T09:46:02.709Z,103.30
2019-03-01T09:48:33.452Z,123.80
2019-03-01T09:51:07.292Z,117.80
2019-03-01T09:53:36.578Z,120.73
2019-03-01T09:56:09.748Z,127.37
2019-03-01T09:58:39.744Z,139.40
2019-03-01T10:01:13.720Z,149.90
2019-03-01T10:03:44.554Z,150.07
2019-03-01T10:06:15.288Z,154.20
2019-03-01T10:08:46.394Z,133.47
2019-03-01T10:11:17.183Z,130.23
2019-03-01T10:13:48.364Z,124.33
2019-03-01T10:16:19.121Z,127.13
2019-03-01T10:18:49.794Z,115.87
2019-03-01T10:21:20.568Z,137.47
2019-03-01T10:23:51.660Z,140.17
2019-03-01T10:26:23.695Z,147.07
2019-03-01T10:28:54.420Z,164.03
2019-03-01T10:31:26.016Z,150.10
2019-03-01T10:33:56.762Z,163.63
2019-03-01T10:36:27.435Z,151.57
2019-03-01T10:38:58.166Z,166.37
2019-03-01T10:41:28.820Z,140.03
2019-03-01T10:43:59.491Z,170.67
2019-03-01T10:46:30.156Z,169.30
2019-03-01T10:49:00.810Z,149.50
2019-03-01T10:51:31.488Z,139.93
2019-03-01T10:54:02.129Z,111.43
2019-03-01T10:56:32.926Z,91.93
2019-03-01T10:59:03.578Z,80.33
2019-03-01T11:01:34.286Z,90.70
2019-03-01T11:04:04.985Z,85.07
2019-03-01T11:06:35.753Z,86.07
2019-03-01T11:09:07.920Z,92.03
2019-03-01T11:11:38.550Z,87.27
2019-03-01T11:14:09.279Z,89.93
2019-03-01T11:16:39.944Z,86.37
2019-03-01T11:19:10.649Z,79.53
2019-03-01T11:21:41.439Z,65.27
2019-03-01T11:24:12.359Z,54.10
2019-03-01T11:26:43.018Z,73.30
2019-03-01T11:29:13.654Z,66.53
2019-03-01T11:31:44.642Z,69.53
2019-03-01T11:34:15.319Z,82.87
2019-03-01T11:36:46.382Z,83.17
2019-03-01T11:39:17.287Z,71.73
2019-03-01T11:41:48.014Z,65.13
2019-03-01T11:44:18.736Z,56.90
2019-03-01T11:46:49.695Z,57.47
2019-03-01T11:49:20.829Z,46.83
2019-03-01T11:51:51.851Z,48.47
2019-03-01T11:54:22.537Z,54.33
2019-03-01T11:56:53.816Z,46.40
2019-03-01T11:59:24.619Z,53.53
2019-03-01T12:01:55.306Z,39.80
2019-03-01T12:04:26.022Z,47.37
2019-03-01T12:06:56.645Z,38.57
2019-03-01T12:09:27.405Z,42.77
2019-03-01T12:11:58.006Z,42.47
2019-03-01T12:14:28.916Z,48.53
2019-03-01T12:16:59.523Z,49.90
2019-03-01T12:19:30.351Z,59.10
2019-03-01T12:22:01.058Z,53.37
2019-03-01T12:24:31.909Z,49.83
2019-03-01T12:27:02.656Z,58.53
2019-03-01T12:29:33.350Z,52.90
2019-03-01T12:32:04.132Z,53.70
2019-03-01T12:34:34.901Z,56.80
2019-03-01T12:37:05.613Z,66.60
2019-03-01T12:39:36.551Z,59.33
2019-03-01T12:42:07.172Z,68.83
2019-03-01T12:44:37.815Z,61.53
2019-03-01T12:47:08.723Z,65.93
2019-03-01T12:49:39.577Z,84.17
2019-03-01T12:52:10.258Z,64.60
2019-03-01T12:54:41.677Z,57.93
2019-03-01T12:57:12.994Z,64.87
2019-03-01T12:59:43.655Z,63.20
2019-03-01T13:02:14.296Z,58.30
2019-03-01T13:04:44.951Z,58.23
2019-03-01T13:07:15.594Z,53.80
2019-03-01T13:09:46.189Z,53.13
2019-03-01T13:12:16.829Z,53.30
2019-03-01T13:14:47.465Z,54.20
2019-03-01T13:17:18.379Z,50.23
2019-03-01T13:19:50.650Z,39.40
2019-03-01T13:22:24.821Z,37.57
2019-03-01T13:24:56.554Z,35.47
2019-03-01T13:27:27.849Z,38.40
2019-03-01T13:29:59.600Z,38.93
2019-03-01T13:32:33.634Z,39.53
2019-03-01T13:35:07.057Z,48.10
2019-03-01T13:37:37.779Z,35.67
2019-03-01T13:40:11.442Z,35.17
2019-03-01T13:42:47.315Z,32.53
2019-03-01T13:45:19.218Z,41.47
2019-03-01T13:47:49.836Z,33.87
2019-03-01T13:50:20.481Z,36.63
2019-03-01T13:52:58.827Z,27.90
2019-03-01T13:55:31.654Z,29.60
2019-03-01T13:58:02.321Z,36.70
2019-03-01T14:00:32.986Z,25.20
2019-03-01T14:03:04.000Z,23.00
2019-03-01T14:05:35.719Z,20.80
2019-03-01T14:08:09.314Z,20.27
2019-03-01T14:10:41.874Z,18.63
2019-03-01T14:13:14.495Z,19.43
2019-03-01T14:15:46.288Z,24.47
2019-03-01T14:18:16.948Z,16.10
2019-03-01T14:20:49.171Z,23.80
2019-03-01T14:23:21.221Z,18.00
2019-03-01T14:25:54.514Z,15.90
2019-03-01T14:28:24.864Z,15.90
2019-03-01T14:30:55.633Z,17.37
2019-03-01T14:33:26.274Z,16.97
2019-03-01T14:35:59.198Z,24.73
2019-03-01T14:38:30.069Z,15.30
2019-03-01T14:41:01.741Z,12.90
2019-03-01T14:43:32.399Z,11.50
2019-03-01T14:46:03.082Z,11.97
2019-03-01T14:48:33.741Z,15.60
2019-03-01T14:51:07.132Z,12.03
2019-03-01T14:53:36.981Z,15.13
2019-03-01T14:56:15.440Z,13.47
2019-03-01T14:59:11.388Z,9.80
2019-03-01T15:02:07.053Z,20.50
2019-03-01T15:04:37.760Z,9.10
2019-03-01T15:07:08.546Z,16.13
2019-03-01T15:09:39.197Z,12.00
2019-03-01T15:12:09.888Z,25.33
2019-03-01T15:14:40.714Z,7.73
2019-03-01T15:17:11.319Z,12.13
2019-03-01T15:19:44.503Z,8.40
2019-03-01T15:22:14.543Z,12.27
2019-03-01T15:24:45.325Z,12.27
2019-03-01T15:27:16.056Z,13.63
2019-03-01T15:29:46.804Z,10.07
2019-03-01T15:32:17.484Z,16.27
2019-03-01T15:34:48.292Z,8.20
2019-03-01T15:37:19.171Z,16.40
2019-03-01T15:39:51.327Z,11.07
2019-03-01T15:42:23.162Z,11.20
2019-03-01T15:44:53.883Z,11.67
2019-03-01T15:47:29.703Z,9.20
2019-03-01T15:50:01.917Z,9.47
2019-03-01T15:52:32.791Z,19.33
2019-03-01T15:55:07.678Z,10.27
2019-03-01T15:57:37.422Z,18.23
2019-03-01T16:00:10.610Z,9.53
2019-03-01T16:02:42.171Z,11.60
2019-03-01T16:05:13.117Z,19.43
2019-03-01T16:07:44.099Z,19.60
2019-03-01T16:10:14.993Z,16.77
2019-03-01T16:12:48.955Z,19.80
2019-03-01T16:15:19.988Z,11.47
2019-03-01T16:17:51.317Z,13.63
2019-03-01T16:20:25.122Z,19.43
2019-03-01T16:22:55.088Z,12.17
2019-03-01T16:25:26.063Z,13.43
2019-03-01T16:27:56.882Z,12.10
2019-03-01T16:30:27.726Z,13.10
2019-03-01T16:32:58.459Z,17.43
2019-03-01T16:35:29.361Z,10.53
2019-03-01T16:38:02.572Z,8.23
2019-03-01T16:40:34.161Z,17.00
2019-03-01T16:43:04.919Z,13.93
2019-03-01T16:45:36.309Z,9.23
2019-03-01T16:48:07.064Z,12.17
2019-03-01T16:50:40.724Z,12.00
2019-03-01T16:53:10.071Z,15.83
2019-03-01T16:55:40.792Z,11.90
2019-03-01T16:58:11.410Z,12.83
2019-03-01T17:00:44.625Z,12.23
2019-03-01T17:03:18.006Z,10.10
2019-03-01T17:05:48.039Z,10.10
2019-03-01T17:08:18.698Z,7.00
2019-03-01T17:10:49.310Z,15.53
2019-03-01T17:13:19.994Z,16.13
2019-03-01T17:15:50.925Z,13.57
2019-03-01T17:18:21.645Z,14.07
2019-03-01T17:20:52.397Z,12.40
2019-03-01T17:23:23.336Z,11.10
2019-03-01T17:25:54.439Z,12.60
2019-03-01T17:28:26.523Z,7.37
2019-03-01T17:30:58.280Z,13.73
2019-03-01T17:33:29.059Z,15.07
2019-03-01T17:36:00.099Z,19.53
2019-03-01T17:38:30.860Z,15.30
2019-03-01T17:41:01.835Z,20.13
2019-03-01T17:43:32.741Z,14.47
2019-03-01T17:46:04.633Z,14.30
2019-03-01T17:48:35.501Z,19.90
2019-03-01T17:51:06.161Z,16.40
2019-03-01T17:53:36.846Z,15.63
2019-03-01T17:56:07.597Z,21.10
2019-03-01T17:58:38.234Z,15.43
2019-03-01T18:01:09.008Z,14.40
2019-03-01T18:03:39.662Z,17.47
2019-03-01T18:06:12.957Z,11.37
2019-03-01T18:08:42.649Z,28.83
2019-03-01T18:11:13.541Z,15.73
2019-03-01T18:13:44.222Z,14.00
2019-03-01T18:16:14.919Z,14.43
2019-03-01T18:18:49.110Z,11.33
2019-03-01T18:21:18.677Z,13.77
2019-03-01T18:23:49.676Z,10.10
2019-03-01T18:26:20.257Z,15.03
2019-03-01T18:28:50.985Z,14.47
2019-03-01T18:31:21.643Z,14.33
2019-03-01T18:33:53.664Z,11.73
2019-03-01T18:36:24.656Z,11.23
2019-03-01T18:38:55.344Z,11.70
2019-03-01T18:41:27.396Z,7.80
2019-03-01T18:43:58.599Z,13.70
2019-03-01T18:46:29.315Z,8.63
2019-03-01T18:49:00.612Z,12.47
2019-03-01T18:51:31.588Z,13.67
2019-03-01T18:54:04.070Z,9.10
2019-03-01T18:56:34.700Z,14.20
2019-03-01T18:59:05.775Z,11.43
2019-03-01T19:01:36.809Z,10.40
2019-03-01T19:04:07.781Z,10.90
2019-03-01T19:06:38.391Z,9.00
2019-03-01T19:09:12.672Z,15.17
2019-03-01T19:11:42.386Z,18.17
2019-03-01T19:14:13.152Z,20.23
2019-03-01T19:16:43.858Z,12.30
2019-03-01T19:19:30.738Z,6.03
2019-03-01T19:22:02.680Z,6.90
2019-03-01T19:24:42.688Z,13.33
2019-03-01T19:27:09.318Z,11.20
2019-03-01T19:29:40.693Z,11.17
2019-03-01T19:32:11.419Z,11.60
2019-03-01T19:34:44.680Z,11.40
2019-03-01T19:37:17.051Z,10.03
2019-03-01T19:39:47.733Z,10.47
2019-03-01T19:42:23.750Z,14.70
2019-03-01T19:44:54.388Z,13.10
2019-03-01T19:47:26.459Z,14.40
2019-03-01T19:49:59.319Z,10.43
2019-03-01T19:52:30.170Z,12.80
2019-03-01T19:55:03.956Z,11.77
2019-03-01T19:57:37.140Z,12.83
2019-03-01T20:00:12.588Z,14.30
2019-03-01T20:02:43.529Z,10.90
2019-03-01T20:05:16.131Z,18.53
2019-03-01T20:07:47.168Z,16.93
2019-03-01T20:10:18.273Z,13.53
2019-03-01T20:12:49.433Z,14.60
2019-03-01T20:15:22.023Z,13.60
2019-03-01T20:17:52.713Z,20.83
2019-03-01T20:20:23.489Z,15.93
2019-03-01T20:22:55.234Z,17.83
2019-03-01T20:25:26.245Z,14.33
2019-03-01T20:27:57.199Z,12.00
2019-03-01T20:30:30.221Z,10.87
2019-03-01T20:33:00.960Z,15.23
2019-03-01T20:35:31.879Z,26.87
2019-03-01T20:38:04.299Z,15.20
2019-03-01T20:40:35.073Z,8.80
2019-03-01T20:43:07.067Z,19.17
2019-03-01T20:45:38.416Z,14.23
2019-03-01T20:48:11.996Z,16.10
2019-03-01T20:50:42.757Z,12.80
2019-03-01T20:53:14.223Z,12.00
2019-03-01T20:55:45.594Z,13.27
2019-03-01T20:58:16.434Z,10.23
2019-03-01T21:00:47.068Z,9.40
2019-03-01T21:03:17.760Z,10.13
2019-03-01T21:05:48.500Z,12.30
2019-03-01T21:08:19.212Z,6.53
2019-03-01T21:10:50.857Z,9.07
2019-03-01T21:13:21.632Z,10.53
2019-03-01T21:15:53.250Z,11.40
2019-03-01T21:18:24.251Z,11.97
2019-03-01T21:20:55.071Z,9.50
2019-03-01T21:23:26.319Z,10.43
2019-03-01T21:25:58.633Z,11.40
2019-03-01T21:28:33.705Z,12.93
2019-03-01T21:31:03.392Z,8.27
2019-03-01T21:33:35.648Z,10.30
2019-03-01T21:36:06.805Z,12.37
2019-03-01T21:38:37.805Z,15.20
2019-03-01T21:41:18.730Z,9.70
2019-03-01T21:43:45.743Z,19.73
2019-03-01T21:46:18.646Z,12.97
2019-03-01T21:48:49.720Z,12.30
2019-03-01T21:51:24.246Z,16.07
2019-03-01T21:53:55.161Z,14.10
2019-03-01T21:56:26.297Z,15.07
2019-03-01T21:58:57.033Z,17.30
2019-03-01T22:01:27.796Z,12.60
2019-03-01T22:03:59.247Z,10.53
2019-03-01T22:06:30.825Z,20.93
2019-03-01T22:09:06.329Z,17.50
2019-03-01T22:11:37.160Z,11.20
2019-03-01T22:14:10.755Z,13.97
2019-03-01T22:16:42.687Z,21.43
2019-03-01T22:19:13.493Z,15.50
2019-03-01T22:21:44.268Z,9.40
2019-03-01T22:24:15.025Z,12.17
2019-03-01T22:26:46.738Z,11.20
2019-03-01T22:29:27.558Z,10.07
2019-03-01T22:32:03.565Z,15.27
2019-03-01T22:34:35.759Z,6.60
2019-03-01T22:37:08.890Z,13.07
2019-03-01T22:39:39.851Z,7.63
2019-03-01T22:42:14.312Z,8.10
2019-03-01T22:44:46.948Z,11.40
2019-03-01T22:47:19.401Z,19.80
2019-03-01T22:49:52.995Z,8.40
2019-03-01T22:52:26.719Z,18.50
2019-03-01T22:55:01.612Z,7.60
2019-03-01T22:57:32.720Z,9.80
2019-03-01T23:00:08.851Z,15.67
2019-03-01T23:02:43.517Z,9.90
2019-03-01T23:05:17.278Z,10.57
2019-03-01T23:07:48.139Z,17.80
2019-03-01T23:10:21.488Z,6.47
2019-03-01T23:12:51.399Z,9.77
2019-03-01T23:15:22.177Z,10.07
2019-03-01T23:17:54.472Z,9.00
2019-03-01T23:20:26.660Z,8.40
2019-03-01T23:23:03.241Z,9.63
2019-03-01T23:25:35.550Z,16.90
2019-03-01T23:28:09.346Z,8.13
2019-03-01T23:30:39.997Z,10.90
2019-03-01T23:33:10.667Z,8.43
2019-03-01T23:35:41.350Z,10.50
2019-03-01T23:38:14.955Z,6.57
2019-03-01T23:40:44.333Z,16.10
2019-03-01T23:43:14.988Z,9.03
2019-03-01T23:45:45.660Z,10.07
2019-03-01T23:48:16.407Z,8.63
2019-03-01T23:50:47.074Z,13.00
2019-03-01T23:53:17.804Z,9.30
2019-03-01T23:55:50.918Z,11.93
2019-03-01T23:58:21.053Z,9.50
